sensor_id;sensor_type;location;lat;lon;timestamp;P1;durP1;ratioP1;P2;durP2;ratioP2
11247;SDS011;5681;53.316;13.950;2022-11-15T00:00:42;471.13;;;75.47;;
11247;SDS011;5681;53.316;13.950;2022-11-15T00:03:09;329.57;;;71.83;;
11247;SDS011;5681;53.316;13.950;2022-11-15T00:05:35;336.83;;;72.87;;
11247;SDS011;5681;53.316;13.950;2022-11-15T00:08:01;490.50;;;72.97;;
11247;SDS011;5681;53.316;13.950;2022-11-15T00:10:29;473.93;;;74.33;;
11247;SDS011;5681;53.316;13.950;2022-11-15T00:12:55;724.90;;;83.17;;
11247;SDS011;5681;53.316;13.950;2022-11-15T00:15:22;501.10;;;73.00;;
11247;SDS011;5681;53.316;13.950;2022-11-15T00:17:48;584.20;;;80.17;;
11247;SDS011;5681;53.316;13.950;2022-11-15T00:20:15;291.57;;;72.47;;
11247;SDS011;5681;53.316;13.950;2022-11-15T00:22:42;275.33;;;71.40;;
11247;SDS011;5681;53.316;13.950;2022-11-15T00:25:09;432.70;;;74.57;;
11247;SDS011;5681;53.316;13.950;2022-11-15T00:27:37;478.50;;;79.40;;
11247;SDS011;5681;53.316;13.950;2022-11-15T00:30:03;846.50;;;90.17;;
11247;SDS011;5681;53.316;13.950;2022-11-15T00:32:30;376.70;;;78.03;;
11247;SDS011;5681;53.316;13.950;2022-11-15T00:34:57;379.23;;;72.67;;
11247;SDS011;5681;53.316;13.950;2022-11-15T00:37:23;414.90;;;75.70;;
11247;SDS011;5681;53.316;13.950;2022-11-15T00:39:50;288.63;;;74.27;;
11247;SDS011;5681;53.316;13.950;2022-11-15T00:42:16;522.67;;;82.10;;
11247;SDS011;5681;53.316;13.950;2022-11-15T00:44:44;555.93;;;81.70;;
11247;SDS011;5681;53.316;13.950;2022-11-15T00:47:10;521.57;;;82.67;;
11247;SDS011;5681;53.316;13.950;2022-11-15T00:49:36;456.77;;;76.87;;
11247;SDS011;5681;53.316;13.950;2022-11-15T00:52:04;354.17;;;75.37;;
11247;SDS011;5681;53.316;13.950;2022-11-15T00:54:30;345.70;;;77.07;;
11247;SDS011;5681;53.316;13.950;2022-11-15T00:56:56;503.87;;;78.67;;
11247;SDS011;5681;53.316;13.950;2022-11-15T00:59:23;305.20;;;77.10;;
11247;SDS011;5681;53.316;13.950;2022-11-15T01:01:51;306.43;;;74.10;;
11247;SDS011;5681;53.316;13.950;2022-11-15T01:04:17;225.33;;;71.83;;
11247;SDS011;5681;53.316;13.950;2022-11-15T01:06:43;332.80;;;74.60;;
11247;SDS011;5681;53.316;13.950;2022-11-15T01:09:10;379.40;;;76.43;;
11247;SDS011;5681;53.316;13.950;2022-11-15T01:11:36;321.13;;;76.07;;
11247;SDS011;5681;53.316;13.950;2022-11-15T01:14:03;279.40;;;75.77;;
11247;SDS011;5681;53.316;13.950;2022-11-15T01:16:29;291.13;;;74.10;;
11247;SDS011;5681;53.316;13.950;2022-11-15T01:18:57;278.43;;;73.50;;
11247;SDS011;5681;53.316;13.950;2022-11-15T01:21:23;425.93;;;75.80;;
11247;SDS011;5681;53.316;13.950;2022-11-15T01:23:52;433.37;;;78.93;;
11247;SDS011;5681;53.316;13.950;2022-11-15T01:26:18;344.97;;;77.03;;
11247;SDS011;5681;53.316;13.950;2022-11-15T01:28:45;712.97;;;88.17;;
11247;SDS011;5681;53.316;13.950;2022-11-15T01:31:12;297.77;;;76.73;;
11247;SDS011;5681;53.316;13.950;2022-11-15T01:33:39;725.93;;;90.83;;
11247;SDS011;5681;53.316;13.950;2022-11-15T01:36:08;484.27;;;79.80;;
11247;SDS011;5681;53.316;13.950;2022-11-15T01:38:36;565.63;;;77.77;;
11247;SDS011;5681;53.316;13.950;2022-11-15T01:41:03;451.90;;;75.90;;
11247;SDS011;5681;53.316;13.950;2022-11-15T01:43:31;372.67;;;71.83;;
11247;SDS011;5681;53.316;13.950;2022-11-15T01:45:58;234.87;;;69.20;;
11247;SDS011;5681;53.316;13.950;2022-11-15T01:48:29;343.03;;;70.53;;
11247;SDS011;5681;53.316;13.950;2022-11-15T01:50:58;572.87;;;75.17;;
11247;SDS011;5681;53.316;13.950;2022-11-15T01:53:27;303.73;;;66.67;;
11247;SDS011;5681;53.316;13.950;2022-11-15T01:55:55;307.10;;;68.77;;
11247;SDS011;5681;53.316;13.950;2022-11-15T01:58:22;484.27;;;70.87;;
11247;SDS011;5681;53.316;13.950;2022-11-15T02:00:48;433.10;;;70.73;;
11247;SDS011;5681;53.316;13.950;2022-11-15T02:03:15;339.03;;;69.03;;
11247;SDS011;5681;53.316;13.950;2022-11-15T02:05:43;277.07;;;67.33;;
11247;SDS011;5681;53.316;13.950;2022-11-15T02:08:09;577.03;;;74.03;;
11247;SDS011;5681;53.316;13.950;2022-11-15T02:10:46;316.83;;;69.03;;
11247;SDS011;5681;53.316;13.950;2022-11-15T02:13:13;334.53;;;65.97;;
11247;SDS011;5681;53.316;13.950;2022-11-15T02:15:40;288.00;;;64.77;;
11247;SDS011;5681;53.316;13.950;2022-11-15T02:18:12;346.87;;;62.07;;
11247;SDS011;5681;53.316;13.950;2022-11-15T02:20:52;348.93;;;63.97;;
11247;SDS011;5681;53.316;13.950;2022-11-15T02:26:25;416.57;;;62.70;;
11247;SDS011;5681;53.316;13.950;2022-11-15T02:29:06;277.43;;;60.43;;
11247;SDS011;5681;53.316;13.950;2022-11-15T02:31:38;413.37;;;63.17;;
11247;SDS011;5681;53.316;13.950;2022-11-15T02:34:08;302.90;;;61.47;;
11247;SDS011;5681;53.316;13.950;2022-11-15T02:36:40;335.37;;;61.67;;
11247;SDS011;5681;53.316;13.950;2022-11-15T02:39:11;515.87;;;67.57;;
11247;SDS011;5681;53.316;13.950;2022-11-15T02:41:43;434.97;;;63.17;;
11247;SDS011;5681;53.316;13.950;2022-11-15T02:44:13;351.23;;;61.43;;
11247;SDS011;5681;53.316;13.950;2022-11-15T02:46:43;390.23;;;64.53;;
11247;SDS011;5681;53.316;13.950;2022-11-15T02:49:41;456.27;;;61.70;;
11247;SDS011;5681;53.316;13.950;2022-11-15T02:52:13;460.40;;;67.30;;
11247;SDS011;5681;53.316;13.950;2022-11-15T02:54:40;279.87;;;59.20;;
11247;SDS011;5681;53.316;13.950;2022-11-15T02:57:10;435.53;;;67.63;;
11247;SDS011;5681;53.316;13.950;2022-11-15T02:59:43;349.50;;;66.17;;
11247;SDS011;5681;53.316;13.950;2022-11-15T03:02:27;333.93;;;62.73;;
11247;SDS011;5681;53.316;13.950;2022-11-15T03:05:14;403.50;;;65.00;;
11247;SDS011;5681;53.316;13.950;2022-11-15T03:07:44;352.90;;;64.57;;
11247;SDS011;5681;53.316;13.950;2022-11-15T03:10:17;628.93;;;71.80;;
11247;SDS011;5681;53.316;13.950;2022-11-15T03:12:49;434.17;;;64.43;;
11247;SDS011;5681;53.316;13.950;2022-11-15T03:15:20;442.23;;;61.93;;
11247;SDS011;5681;53.316;13.950;2022-11-15T03:17:51;288.67;;;59.03;;
11247;SDS011;5681;53.316;13.950;2022-11-15T03:20:21;243.33;;;58.40;;
11247;SDS011;5681;53.316;13.950;2022-11-15T03:22:47;415.33;;;60.90;;
11247;SDS011;5681;53.316;13.950;2022-11-15T03:25:16;415.37;;;62.70;;
11247;SDS011;5681;53.316;13.950;2022-11-15T03:27:46;645.40;;;68.33;;
11247;SDS011;5681;53.316;13.950;2022-11-15T03:30:15;435.47;;;61.07;;
11247;SDS011;5681;53.316;13.950;2022-11-15T03:32:44;542.30;;;62.43;;
11247;SDS011;5681;53.316;13.950;2022-11-15T03:35:14;235.43;;;57.23;;
11247;SDS011;5681;53.316;13.950;2022-11-15T03:37:43;433.33;;;60.43;;
11247;SDS011;5681;53.316;13.950;2022-11-15T03:40:12;470.63;;;60.07;;
11247;SDS011;5681;53.316;13.950;2022-11-15T03:42:39;384.97;;;57.27;;
11247;SDS011;5681;53.316;13.950;2022-11-15T03:45:11;293.50;;;54.60;;
11247;SDS011;5681;53.316;13.950;2022-11-15T03:47:41;559.57;;;63.87;;
11247;SDS011;5681;53.316;13.950;2022-11-15T03:50:10;524.50;;;62.77;;
11247;SDS011;5681;53.316;13.950;2022-11-15T03:52:40;504.83;;;62.17;;
11247;SDS011;5681;53.316;13.950;2022-11-15T03:55:08;408.80;;;54.83;;
11247;SDS011;5681;53.316;13.950;2022-11-15T03:57:36;499.67;;;57.43;;
11247;SDS011;5681;53.316;13.950;2022-11-15T04:00:02;304.93;;;56.83;;
11247;SDS011;5681;53.316;13.950;2022-11-15T04:02:29;333.80;;;56.97;;
11247;SDS011;5681;53.316;13.950;2022-11-15T04:04:56;376.30;;;57.10;;
11247;SDS011;5681;53.316;13.950;2022-11-15T04:07:22;368.53;;;53.90;;
11247;SDS011;5681;53.316;13.950;2022-11-15T04:09:50;437.57;;;54.80;;
11247;SDS011;5681;53.316;13.950;2022-11-15T04:12:28;394.67;;;56.20;;
11247;SDS011;5681;53.316;13.950;2022-11-15T04:14:59;465.13;;;54.20;;
11247;SDS011;5681;53.316;13.950;2022-11-15T04:17:35;207.37;;;51.40;;
11247;SDS011;5681;53.316;13.950;2022-11-15T04:20:03;397.80;;;55.10;;
11247;SDS011;5681;53.316;13.950;2022-11-15T04:22:48;472.50;;;57.97;;
11247;SDS011;5681;53.316;13.950;2022-11-15T04:25:34;163.87;;;47.73;;
11247;SDS011;5681;53.316;13.950;2022-11-15T04:28:00;320.90;;;52.03;;
11247;SDS011;5681;53.316;13.950;2022-11-15T04:30:26;327.43;;;53.43;;
11247;SDS011;5681;53.316;13.950;2022-11-15T04:32:53;432.87;;;57.43;;
11247;SDS011;5681;53.316;13.950;2022-11-15T04:35:19;332.00;;;54.50;;
11247;SDS011;5681;53.316;13.950;2022-11-15T04:37:45;429.90;;;57.13;;
11247;SDS011;5681;53.316;13.950;2022-11-15T04:40:12;303.77;;;53.93;;
11247;SDS011;5681;53.316;13.950;2022-11-15T04:42:41;347.23;;;52.93;;
11247;SDS011;5681;53.316;13.950;2022-11-15T04:45:08;383.03;;;54.83;;
11247;SDS011;5681;53.316;13.950;2022-11-15T04:47:35;394.57;;;54.90;;
11247;SDS011;5681;53.316;13.950;2022-11-15T04:50:01;364.73;;;53.67;;
11247;SDS011;5681;53.316;13.950;2022-11-15T04:52:28;351.77;;;52.90;;
11247;SDS011;5681;53.316;13.950;2022-11-15T04:54:54;342.13;;;56.37;;
11247;SDS011;5681;53.316;13.950;2022-11-15T04:57:21;467.47;;;58.70;;
11247;SDS011;5681;53.316;13.950;2022-11-15T04:59:48;408.43;;;58.03;;
11247;SDS011;5681;53.316;13.950;2022-11-15T05:02:15;223.47;;;52.17;;
11247;SDS011;5681;53.316;13.950;2022-11-15T05:04:41;547.37;;;63.50;;
11247;SDS011;5681;53.316;13.950;2022-11-15T05:07:07;234.97;;;53.60;;
11247;SDS011;5681;53.316;13.950;2022-11-15T05:09:33;609.57;;;61.33;;
11247;SDS011;5681;53.316;13.950;2022-11-15T05:12:00;477.30;;;61.57;;
11247;SDS011;5681;53.316;13.950;2022-11-15T05:14:26;629.10;;;64.13;;
11247;SDS011;5681;53.316;13.950;2022-11-15T05:16:54;445.93;;;56.00;;
11247;SDS011;5681;53.316;13.950;2022-11-15T05:19:20;397.83;;;54.93;;
11247;SDS011;5681;53.316;13.950;2022-11-15T05:21:46;395.27;;;55.77;;
11247;SDS011;5681;53.316;13.950;2022-11-15T05:24:13;471.37;;;58.37;;
11247;SDS011;5681;53.316;13.950;2022-11-15T05:26:40;495.97;;;57.20;;
11247;SDS011;5681;53.316;13.950;2022-11-15T05:29:08;559.13;;;59.33;;
11247;SDS011;5681;53.316;13.950;2022-11-15T05:31:36;186.33;;;50.10;;
11247;SDS011;5681;53.316;13.950;2022-11-15T05:34:07;469.57;;;57.43;;
11247;SDS011;5681;53.316;13.950;2022-11-15T05:36:34;346.33;;;53.17;;
11247;SDS011;5681;53.316;13.950;2022-11-15T05:39:02;237.40;;;50.20;;
11247;SDS011;5681;53.316;13.950;2022-11-15T05:41:30;352.37;;;52.23;;
11247;SDS011;5681;53.316;13.950;2022-11-15T05:43:58;541.53;;;61.00;;
11247;SDS011;5681;53.316;13.950;2022-11-15T05:46:26;433.10;;;56.83;;
11247;SDS011;5681;53.316;13.950;2022-11-15T05:48:52;442.53;;;55.53;;
11247;SDS011;5681;53.316;13.950;2022-11-15T05:51:21;333.97;;;53.03;;
11247;SDS011;5681;53.316;13.950;2022-11-15T05:53:48;374.57;;;53.90;;
11247;SDS011;5681;53.316;13.950;2022-11-15T05:56:16;426.70;;;54.13;;
11247;SDS011;5681;53.316;13.950;2022-11-15T05:58:42;396.07;;;53.13;;
11247;SDS011;5681;53.316;13.950;2022-11-15T06:01:09;303.20;;;48.13;;
11247;SDS011;5681;53.316;13.950;2022-11-15T06:03:35;654.30;;;62.13;;
11247;SDS011;5681;53.316;13.950;2022-11-15T06:06:01;632.03;;;62.60;;
11247;SDS011;5681;53.316;13.950;2022-11-15T06:08:29;344.17;;;51.23;;
11247;SDS011;5681;53.316;13.950;2022-11-15T06:10:55;422.03;;;54.63;;
11247;SDS011;5681;53.316;13.950;2022-11-15T06:13:22;312.53;;;50.40;;
11247;SDS011;5681;53.316;13.950;2022-11-15T06:15:48;333.50;;;51.83;;
11247;SDS011;5681;53.316;13.950;2022-11-15T06:18:14;318.97;;;50.77;;
11247;SDS011;5681;53.316;13.950;2022-11-15T06:20:41;187.73;;;48.17;;
11247;SDS011;5681;53.316;13.950;2022-11-15T06:23:07;277.20;;;50.10;;
11247;SDS011;5681;53.316;13.950;2022-11-15T06:25:35;393.57;;;52.07;;
11247;SDS011;5681;53.316;13.950;2022-11-15T06:28:01;209.40;;;48.50;;
11247;SDS011;5681;53.316;13.950;2022-11-15T06:30:27;290.30;;;52.60;;
11247;SDS011;5681;53.316;13.950;2022-11-15T06:32:58;369.40;;;56.13;;
11247;SDS011;5681;53.316;13.950;2022-11-15T06:35:26;156.97;;;48.00;;
11247;SDS011;5681;53.316;13.950;2022-11-15T06:37:53;285.63;;;50.47;;
11247;SDS011;5681;53.316;13.950;2022-11-15T06:40:19;485.63;;;56.33;;
11247;SDS011;5681;53.316;13.950;2022-11-15T06:42:47;326.00;;;48.13;;
11247;SDS011;5681;53.316;13.950;2022-11-15T06:45:13;344.90;;;52.53;;
11247;SDS011;5681;53.316;13.950;2022-11-15T06:47:43;454.70;;;53.40;;
11247;SDS011;5681;53.316;13.950;2022-11-15T06:50:10;437.07;;;55.33;;
11247;SDS011;5681;53.316;13.950;2022-11-15T06:52:37;304.17;;;50.07;;
11247;SDS011;5681;53.316;13.950;2022-11-15T06:55:03;172.90;;;48.20;;
11247;SDS011;5681;53.316;13.950;2022-11-15T06:57:30;279.93;;;48.17;;
11247;SDS011;5681;53.316;13.950;2022-11-15T06:59:58;330.40;;;50.63;;
11247;SDS011;5681;53.316;13.950;2022-11-15T07:02:24;349.30;;;50.73;;
11247;SDS011;5681;53.316;13.950;2022-11-15T07:04:51;303.33;;;51.67;;
11247;SDS011;5681;53.316;13.950;2022-11-15T07:07:17;181.77;;;46.97;;
11247;SDS011;5681;53.316;13.950;2022-11-15T07:09:43;258.13;;;50.20;;
11247;SDS011;5681;53.316;13.950;2022-11-15T07:12:10;258.37;;;46.40;;
11247;SDS011;5681;53.316;13.950;2022-11-15T07:14:36;404.87;;;53.87;;
11247;SDS011;5681;53.316;13.950;2022-11-15T07:17:04;202.83;;;48.47;;
11247;SDS011;5681;53.316;13.950;2022-11-15T07:19:31;389.17;;;55.07;;
11247;SDS011;5681;53.316;13.950;2022-11-15T07:21:57;343.50;;;54.07;;
11247;SDS011;5681;53.316;13.950;2022-11-15T07:24:24;186.70;;;46.83;;
11247;SDS011;5681;53.316;13.950;2022-11-15T07:26:50;184.90;;;49.13;;
11247;SDS011;5681;53.316;13.950;2022-11-15T07:29:16;347.93;;;50.93;;
11247;SDS011;5681;53.316;13.950;2022-11-15T07:31:43;245.23;;;46.20;;
11247;SDS011;5681;53.316;13.950;2022-11-15T07:34:10;237.97;;;47.40;;
11247;SDS011;5681;53.316;13.950;2022-11-15T07:36:37;165.67;;;44.27;;
11247;SDS011;5681;53.316;13.950;2022-11-15T07:39:03;215.07;;;46.20;;
11247;SDS011;5681;53.316;13.950;2022-11-15T07:41:29;257.07;;;49.20;;
11247;SDS011;5681;53.316;13.950;2022-11-15T07:43:56;103.30;;;45.37;;
11247;SDS011;5681;53.316;13.950;2022-11-15T07:46:22;220.57;;;46.83;;
11247;SDS011;5681;53.316;13.950;2022-11-15T07:48:49;142.70;;;45.83;;
11247;SDS011;5681;53.316;13.950;2022-11-15T07:51:16;134.57;;;45.90;;
11247;SDS011;5681;53.316;13.950;2022-11-15T07:53:43;176.87;;;46.80;;
11247;SDS011;5681;53.316;13.950;2022-11-15T07:56:10;129.37;;;45.50;;
11247;SDS011;5681;53.316;13.950;2022-11-15T07:58:37;118.40;;;45.73;;
11247;SDS011;5681;53.316;13.950;2022-11-15T08:01:03;195.00;;;45.10;;
11247;SDS011;5681;53.316;13.950;2022-11-15T08:03:30;264.93;;;47.93;;
11247;SDS011;5681;53.316;13.950;2022-11-15T08:05:56;189.27;;;46.27;;
11247;SDS011;5681;53.316;13.950;2022-11-15T08:08:24;177.77;;;43.67;;
11247;SDS011;5681;53.316;13.950;2022-11-15T08:10:51;194.43;;;44.83;;
11247;SDS011;5681;53.316;13.950;2022-11-15T08:13:17;270.47;;;44.63;;
11247;SDS011;5681;53.316;13.950;2022-11-15T08:15:43;242.40;;;44.53;;
11247;SDS011;5681;53.316;13.950;2022-11-15T08:18:11;143.17;;;43.60;;
11247;SDS011;5681;53.316;13.950;2022-11-15T08:20:38;100.13;;;45.27;;
11247;SDS011;5681;53.316;13.950;2022-11-15T08:23:05;257.60;;;47.40;;
11247;SDS011;5681;53.316;13.950;2022-11-15T08:25:34;306.60;;;47.67;;
11247;SDS011;5681;53.316;13.950;2022-11-15T08:28:01;144.47;;;43.30;;
11247;SDS011;5681;53.316;13.950;2022-11-15T08:30:29;334.50;;;47.67;;
11247;SDS011;5681;53.316;13.950;2022-11-15T08:32:56;356.27;;;45.37;;
11247;SDS011;5681;53.316;13.950;2022-11-15T08:35:24;238.00;;;45.27;;
11247;SDS011;5681;53.316;13.950;2022-11-15T08:37:52;251.67;;;44.60;;
11247;SDS011;5681;53.316;13.950;2022-11-15T08:40:18;292.13;;;46.60;;
11247;SDS011;5681;53.316;13.950;2022-11-15T08:42:46;287.87;;;44.40;;
11247;SDS011;5681;53.316;13.950;2022-11-15T08:45:13;181.20;;;41.07;;
11247;SDS011;5681;53.316;13.950;2022-11-15T08:47:40;157.80;;;40.53;;
11247;SDS011;5681;53.316;13.950;2022-11-15T08:50:07;215.80;;;42.00;;
11247;SDS011;5681;53.316;13.950;2022-11-15T08:52:34;228.57;;;42.10;;
11247;SDS011;5681;53.316;13.950;2022-11-15T08:55:00;199.33;;;40.27;;
11247;SDS011;5681;53.316;13.950;2022-11-15T08:57:27;129.63;;;40.97;;
11247;SDS011;5681;53.316;13.950;2022-11-15T08:59:55;327.03;;;42.70;;
11247;SDS011;5681;53.316;13.950;2022-11-15T09:02:22;262.17;;;42.97;;
11247;SDS011;5681;53.316;13.950;2022-11-15T09:04:48;182.10;;;42.60;;
11247;SDS011;5681;53.316;13.950;2022-11-15T09:07:15;233.77;;;42.97;;
11247;SDS011;5681;53.316;13.950;2022-11-15T09:09:41;162.20;;;41.17;;
11247;SDS011;5681;53.316;13.950;2022-11-15T09:12:08;104.80;;;40.43;;
11247;SDS011;5681;53.316;13.950;2022-11-15T09:14:34;174.13;;;42.97;;
11247;SDS011;5681;53.316;13.950;2022-11-15T09:17:02;186.97;;;39.50;;
11247;SDS011;5681;53.316;13.950;2022-11-15T09:19:28;214.70;;;42.50;;
11247;SDS011;5681;53.316;13.950;2022-11-15T09:21:55;232.67;;;42.03;;
11247;SDS011;5681;53.316;13.950;2022-11-15T09:24:21;258.60;;;40.23;;
11247;SDS011;5681;53.316;13.950;2022-11-15T09:26:49;195.70;;;42.17;;
11247;SDS011;5681;53.316;13.950;2022-11-15T09:29:15;131.33;;;41.50;;
11247;SDS011;5681;53.316;13.950;2022-11-15T09:31:42;238.27;;;40.80;;
11247;SDS011;5681;53.316;13.950;2022-11-15T09:34:10;170.77;;;39.50;;
11247;SDS011;5681;53.316;13.950;2022-11-15T09:36:37;270.27;;;40.60;;
11247;SDS011;5681;53.316;13.950;2022-11-15T09:39:03;324.87;;;40.77;;
11247;SDS011;5681;53.316;13.950;2022-11-15T09:41:36;186.30;;;40.60;;
11247;SDS011;5681;53.316;13.950;2022-11-15T09:44:24;204.03;;;37.80;;
11247;SDS011;5681;53.316;13.950;2022-11-15T09:47:00;158.70;;;39.43;;
11247;SDS011;5681;53.316;13.950;2022-11-15T09:49:37;251.17;;;38.50;;
11247;SDS011;5681;53.316;13.950;2022-11-15T09:52:03;200.20;;;39.83;;
11247;SDS011;5681;53.316;13.950;2022-11-15T09:54:30;172.23;;;41.53;;
11247;SDS011;5681;53.316;13.950;2022-11-15T09:57:02;147.00;;;41.20;;
11247;SDS011;5681;53.316;13.950;2022-11-15T09:59:43;203.37;;;41.27;;
11247;SDS011;5681;53.316;13.950;2022-11-15T10:02:19;254.13;;;41.27;;
11247;SDS011;5681;53.316;13.950;2022-11-15T10:04:56;182.77;;;40.60;;
11247;SDS011;5681;53.316;13.950;2022-11-15T10:07:25;128.83;;;40.57;;
11247;SDS011;5681;53.316;13.950;2022-11-15T10:09:54;164.90;;;39.50;;
11247;SDS011;5681;53.316;13.950;2022-11-15T10:12:23;146.60;;;38.60;;
11247;SDS011;5681;53.316;13.950;2022-11-15T10:14:50;232.90;;;38.57;;
11247;SDS011;5681;53.316;13.950;2022-11-15T10:20:17;73.53;;;40.33;;
11247;SDS011;5681;53.316;13.950;2022-11-15T10:22:47;136.33;;;41.20;;
11247;SDS011;5681;53.316;13.950;2022-11-15T10:25:17;72.83;;;41.17;;
11247;SDS011;5681;53.316;13.950;2022-11-15T10:27:47;259.43;;;43.77;;
11247;SDS011;5681;53.316;13.950;2022-11-15T10:30:18;84.20;;;40.93;;
11247;SDS011;5681;53.316;13.950;2022-11-15T10:32:45;64.50;;;38.30;;
11247;SDS011;5681;53.316;13.950;2022-11-15T10:35:19;67.80;;;38.93;;
11247;SDS011;5681;53.316;13.950;2022-11-15T10:37:48;59.80;;;37.97;;
11247;SDS011;5681;53.316;13.950;2022-11-15T10:40:16;83.03;;;40.37;;
11247;SDS011;5681;53.316;13.950;2022-11-15T10:42:44;70.13;;;37.40;;
11247;SDS011;5681;53.316;13.950;2022-11-15T10:45:24;93.40;;;38.20;;
11247;SDS011;5681;53.316;13.950;2022-11-15T10:47:52;118.43;;;38.43;;
11247;SDS011;5681;53.316;13.950;2022-11-15T10:50:28;135.13;;;37.03;;
11247;SDS011;5681;53.316;13.950;2022-11-15T10:52:55;99.53;;;37.80;;
11247;SDS011;5681;53.316;13.950;2022-11-15T10:55:26;130.10;;;37.03;;
11247;SDS011;5681;53.316;13.950;2022-11-15T10:57:54;207.60;;;38.97;;
11247;SDS011;5681;53.316;13.950;2022-11-15T11:00:29;173.03;;;39.10;;
11247;SDS011;5681;53.316;13.950;2022-11-15T11:02:59;83.57;;;41.97;;
11247;SDS011;5681;53.316;13.950;2022-11-15T11:05:28;87.23;;;39.73;;
11247;SDS011;5681;53.316;13.950;2022-11-15T11:07:57;107.70;;;39.57;;
11247;SDS011;5681;53.316;13.950;2022-11-15T11:10:24;101.13;;;39.03;;
11247;SDS011;5681;53.316;13.950;2022-11-15T11:12:51;73.67;;;39.60;;
11247;SDS011;5681;53.316;13.950;2022-11-15T11:15:17;98.87;;;39.03;;
11247;SDS011;5681;53.316;13.950;2022-11-15T11:17:49;127.43;;;38.57;;
11247;SDS011;5681;53.316;13.950;2022-11-15T11:20:22;102.17;;;37.83;;
11247;SDS011;5681;53.316;13.950;2022-11-15T11:23:10;157.37;;;38.80;;
11247;SDS011;5681;53.316;13.950;2022-11-15T11:25:45;68.73;;;38.37;;
11247;SDS011;5681;53.316;13.950;2022-11-15T11:28:23;158.00;;;41.23;;
11247;SDS011;5681;53.316;13.950;2022-11-15T11:30:59;85.63;;;40.23;;
11247;SDS011;5681;53.316;13.950;2022-11-15T11:33:31;113.40;;;40.50;;
11247;SDS011;5681;53.316;13.950;2022-11-15T11:36:04;96.77;;;39.63;;
11247;SDS011;5681;53.316;13.950;2022-11-15T11:38:42;73.47;;;39.90;;
11247;SDS011;5681;53.316;13.950;2022-11-15T11:41:18;200.87;;;41.43;;
11247;SDS011;5681;53.316;13.950;2022-11-15T11:43:52;351.63;;;40.73;;
11247;SDS011;5681;53.316;13.950;2022-11-15T11:46:32;78.47;;;38.97;;
11247;SDS011;5681;53.316;13.950;2022-11-15T11:49:08;76.40;;;39.47;;
11247;SDS011;5681;53.316;13.950;2022-11-15T11:51:38;87.37;;;40.10;;
11247;SDS011;5681;53.316;13.950;2022-11-15T11:54:10;154.73;;;39.23;;
11247;SDS011;5681;53.316;13.950;2022-11-15T11:56:39;290.10;;;38.87;;
11247;SDS011;5681;53.316;13.950;2022-11-15T11:59:10;131.43;;;37.03;;
11247;SDS011;5681;53.316;13.950;2022-11-15T12:01:44;67.67;;;37.93;;
11247;SDS011;5681;53.316;13.950;2022-11-15T12:04:11;82.10;;;38.87;;
11247;SDS011;5681;53.316;13.950;2022-11-15T12:06:41;119.23;;;38.83;;
11247;SDS011;5681;53.316;13.950;2022-11-15T12:09:14;355.63;;;39.90;;
11247;SDS011;5681;53.316;13.950;2022-11-15T12:11:47;88.20;;;35.90;;
11247;SDS011;5681;53.316;13.950;2022-11-15T12:14:21;126.17;;;36.50;;
11247;SDS011;5681;53.316;13.950;2022-11-15T12:16:52;89.50;;;37.20;;
11247;SDS011;5681;53.316;13.950;2022-11-15T12:19:18;484.10;;;41.03;;
11247;SDS011;5681;53.316;13.950;2022-11-15T12:21:46;172.07;;;39.60;;
11247;SDS011;5681;53.316;13.950;2022-11-15T12:24:18;131.00;;;37.47;;
11247;SDS011;5681;53.316;13.950;2022-11-15T12:26:48;67.57;;;37.03;;
11247;SDS011;5681;53.316;13.950;2022-11-15T12:29:19;64.70;;;40.70;;
11247;SDS011;5681;53.316;13.950;2022-11-15T12:31:49;78.33;;;39.37;;
11247;SDS011;5681;53.316;13.950;2022-11-15T12:34:29;130.90;;;44.70;;
11247;SDS011;5681;53.316;13.950;2022-11-15T12:37:01;123.20;;;45.83;;
11247;SDS011;5681;53.316;13.950;2022-11-15T12:43:00;93.03;;;44.10;;
11247;SDS011;5681;53.316;13.950;2022-11-15T12:45:29;170.43;;;45.63;;
11247;SDS011;5681;53.316;13.950;2022-11-15T12:48:20;189.70;;;44.50;;
11247;SDS011;5681;53.316;13.950;2022-11-15T12:50:54;135.43;;;47.00;;
11247;SDS011;5681;53.316;13.950;2022-11-15T12:53:26;79.47;;;44.60;;
11247;SDS011;5681;53.316;13.950;2022-11-15T12:56:08;113.23;;;46.37;;
11247;SDS011;5681;53.316;13.950;2022-11-15T12:58:40;399.70;;;49.20;;
11247;SDS011;5681;53.316;13.950;2022-11-15T13:01:08;217.70;;;45.63;;
11247;SDS011;5681;53.316;13.950;2022-11-15T13:03:34;376.97;;;47.60;;
11247;SDS011;5681;53.316;13.950;2022-11-15T13:09:49;75.10;;;47.33;;
11247;SDS011;5681;53.316;13.950;2022-11-15T13:15:31;77.53;;;44.27;;
11247;SDS011;5681;53.316;13.950;2022-11-15T13:18:19;176.93;;;45.27;;
11247;SDS011;5681;53.316;13.950;2022-11-15T13:20:53;89.87;;;46.63;;
11247;SDS011;5681;53.316;13.950;2022-11-15T13:23:21;140.17;;;48.43;;
11247;SDS011;5681;53.316;13.950;2022-11-15T13:25:52;130.90;;;49.23;;
11247;SDS011;5681;53.316;13.950;2022-11-15T13:28:33;113.07;;;48.70;;
11247;SDS011;5681;53.316;13.950;2022-11-15T13:31:02;87.93;;;47.47;;
11247;SDS011;5681;53.316;13.950;2022-11-15T13:33:39;211.77;;;44.00;;
11247;SDS011;5681;53.316;13.950;2022-11-15T13:36:06;103.23;;;43.87;;
11247;SDS011;5681;53.316;13.950;2022-11-15T13:38:37;107.50;;;46.93;;
11247;SDS011;5681;53.316;13.950;2022-11-15T13:41:11;124.83;;;44.47;;
11247;SDS011;5681;53.316;13.950;2022-11-15T13:43:40;299.70;;;44.20;;
11247;SDS011;5681;53.316;13.950;2022-11-15T13:46:11;135.70;;;48.10;;
11247;SDS011;5681;53.316;13.950;2022-11-15T13:48:39;517.57;;;77.70;;
11247;SDS011;5681;53.316;13.950;2022-11-15T13:51:07;234.87;;;44.40;;
11247;SDS011;5681;53.316;13.950;2022-11-15T13:53:38;246.70;;;46.20;;
11247;SDS011;5681;53.316;13.950;2022-11-15T13:56:06;522.23;;;55.40;;
11247;SDS011;5681;53.316;13.950;2022-11-15T13:58:33;79.57;;;47.33;;
11247;SDS011;5681;53.316;13.950;2022-11-15T14:01:00;98.73;;;47.47;;
11247;SDS011;5681;53.316;13.950;2022-11-15T14:03:28;104.77;;;48.93;;
11247;SDS011;5681;53.316;13.950;2022-11-15T14:06:02;189.77;;;49.73;;
11247;SDS011;5681;53.316;13.950;2022-11-15T14:08:31;130.03;;;49.27;;
11247;SDS011;5681;53.316;13.950;2022-11-15T14:11:16;97.47;;;47.77;;
11247;SDS011;5681;53.316;13.950;2022-11-15T14:13:58;177.77;;;49.40;;
11247;SDS011;5681;53.316;13.950;2022-11-15T14:16:32;378.83;;;49.60;;
11247;SDS011;5681;53.316;13.950;2022-11-15T14:19:00;206.82;;;51.53;;
11247;SDS011;5681;53.316;13.950;2022-11-15T14:21:26;122.63;;;49.97;;
11247;SDS011;5681;53.316;13.950;2022-11-15T14:23:52;139.77;;;50.03;;
11247;SDS011;5681;53.316;13.950;2022-11-15T14:26:27;450.57;;;52.43;;
11247;SDS011;5681;53.316;13.950;2022-11-15T14:28:55;555.20;;;53.40;;
11247;SDS011;5681;53.316;13.950;2022-11-15T14:31:21;360.57;;;48.40;;
11247;SDS011;5681;53.316;13.950;2022-11-15T14:33:48;175.23;;;50.70;;
11247;SDS011;5681;53.316;13.950;2022-11-15T14:36:15;262.10;;;48.70;;
11247;SDS011;5681;53.316;13.950;2022-11-15T14:38:43;164.70;;;49.70;;